sensor_id;sensor_type;location;lat;lon;timestamp;temperature;humidity
17687;DHT22;8962;52.538;13.266;2023-06-22T00:02:05;20.10;99.90
17687;DHT22;8962;52.538;13.266;2023-06-22T00:04:32;20.10;99.90
17687;DHT22;8962;52.538;13.266;2023-06-22T00:07:01;20.10;99.90
17687;DHT22;8962;52.538;13.266;2023-06-22T00:09:31;20.00;99.90
17687;DHT22;8962;52.538;13.266;2023-06-22T00:11:58;20.00;99.90
17687;DHT22;8962;52.538;13.266;2023-06-22T00:14:28;19.90;99.90
17687;DHT22;8962;52.538;13.266;2023-06-22T00:16:58;20.00;99.90
17687;DHT22;8962;52.538;13.266;2023-06-22T00:19:26;20.00;99.90
17687;DHT22;8962;52.538;13.266;2023-06-22T00:21:55;19.90;99.90
17687;DHT22;8962;52.538;13.266;2023-06-22T00:24:26;19.90;99.90
17687;DHT22;8962;52.538;13.266;2023-06-22T00:26:53;19.90;99.90
17687;DHT22;8962;52.538;13.266;2023-06-22T00:29:22;19.90;99.90
17687;DHT22;8962;52.538;13.266;2023-06-22T00:31:51;19.90;99.90
17687;DHT22;8962;52.538;13.266;2023-06-22T00:34:18;19.90;99.90
17687;DHT22;8962;52.538;13.266;2023-06-22T00:36:46;19.90;99.90
17687;DHT22;8962;52.538;13.266;2023-06-22T00:39:13;19.90;99.90
17687;DHT22;8962;52.538;13.266;2023-06-22T00:41:40;19.90;99.90
17687;DHT22;8962;52.538;13.266;2023-06-22T00:44:08;19.80;99.90
17687;DHT22;8962;52.538;13.266;2023-06-22T00:46:35;19.80;99.90
17687;DHT22;8962;52.538;13.266;2023-06-22T00:49:02;19.80;99.90
17687;DHT22;8962;52.538;13.266;2023-06-22T00:51:31;19.80;99.90
17687;DHT22;8962;52.538;13.266;2023-06-22T00:54:01;19.80;99.90
17687;DHT22;8962;52.538;13.266;2023-06-22T00:56:28;19.70;99.90
17687;DHT22;8962;52.538;13.266;2023-06-22T00:58:57;19.70;99.90
17687;DHT22;8962;52.538;13.266;2023-06-22T01:01:25;19.70;99.90
17687;DHT22;8962;52.538;13.266;2023-06-22T01:03:52;19.70;99.90
17687;DHT22;8962;52.538;13.266;2023-06-22T01:06:26;19.60;99.90
17687;DHT22;8962;52.538;13.266;2023-06-22T01:09:12;19.60;99.90
17687;DHT22;8962;52.538;13.266;2023-06-22T01:11:45;19.50;99.90
17687;DHT22;8962;52.538;13.266;2023-06-22T01:14:18;19.50;99.90
17687;DHT22;8962;52.538;13.266;2023-06-22T01:16:48;19.40;99.90
17687;DHT22;8962;52.538;13.266;2023-06-22T01:19:32;19.40;99.90
17687;DHT22;8962;52.538;13.266;2023-06-22T01:22:04;19.40;99.90
17687;DHT22;8962;52.538;13.266;2023-06-22T01:24:45;19.40;99.90
17687;DHT22;8962;52.538;13.266;2023-06-22T01:27:28;19.30;99.90
17687;DHT22;8962;52.538;13.266;2023-06-22T01:30:03;19.30;99.90
17687;DHT22;8962;52.538;13.266;2023-06-22T01:32:36;19.30;99.90
17687;DHT22;8962;52.538;13.266;2023-06-22T01:35:06;19.30;99.90
17687;DHT22;8962;52.538;13.266;2023-06-22T01:37:35;19.30;99.90
17687;DHT22;8962;52.538;13.266;2023-06-22T01:40:04;19.30;99.90
17687;DHT22;8962;52.538;13.266;2023-06-22T01:42:32;19.20;99.90
17687;DHT22;8962;52.538;13.266;2023-06-22T01:45:01;19.30;99.90
17687;DHT22;8962;52.538;13.266;2023-06-22T01:47:30;19.40;99.90
17687;DHT22;8962;52.538;13.266;2023-06-22T01:49:57;19.40;99.90
17687;DHT22;8962;52.538;13.266;2023-06-22T01:52:25;19.50;99.90
17687;DHT22;8962;52.538;13.266;2023-06-22T01:54:52;19.50;99.90
17687;DHT22;8962;52.538;13.266;2023-06-22T01:57:19;19.60;99.90
17687;DHT22;8962;52.538;13.266;2023-06-22T01:59:50;19.50;99.90
17687;DHT22;8962;52.538;13.266;2023-06-22T02:02:21;19.60;99.90
17687;DHT22;8962;52.538;13.266;2023-06-22T02:04:57;19.60;99.90
17687;DHT22;8962;52.538;13.266;2023-06-22T02:07:29;19.50;99.90
17687;DHT22;8962;52.538;13.266;2023-06-22T02:10:02;19.50;99.90
17687;DHT22;8962;52.538;13.266;2023-06-22T02:12:31;19.50;99.90
17687;DHT22;8962;52.538;13.266;2023-06-22T02:14:59;19.40;99.90
17687;DHT22;8962;52.538;13.266;2023-06-22T02:17:29;19.30;99.90
17687;DHT22;8962;52.538;13.266;2023-06-22T02:20:01;19.30;99.90
17687;DHT22;8962;52.538;13.266;2023-06-22T02:22:30;19.30;99.90
17687;DHT22;8962;52.538;13.266;2023-06-22T02:24:57;19.20;99.90
17687;DHT22;8962;52.538;13.266;2023-06-22T02:27:24;19.30;99.90
17687;DHT22;8962;52.538;13.266;2023-06-22T02:29:52;19.20;99.90
17687;DHT22;8962;52.538;13.266;2023-06-22T02:32:19;19.20;99.90
17687;DHT22;8962;52.538;13.266;2023-06-22T02:34:48;19.20;99.90
17687;DHT22;8962;52.538;13.266;2023-06-22T02:37:15;19.40;99.90
17687;DHT22;8962;52.538;13.266;2023-06-22T02:39:43;19.50;99.90
17687;DHT22;8962;52.538;13.266;2023-06-22T02:42:10;19.60;99.90
17687;DHT22;8962;52.538;13.266;2023-06-22T02:44:37;19.60;99.90
17687;DHT22;8962;52.538;13.266;2023-06-22T02:47:05;19.70;99.90
17687;DHT22;8962;52.538;13.266;2023-06-22T02:49:32;19.60;99.90
17687;DHT22;8962;52.538;13.266;2023-06-22T02:52:01;19.60;99.90
17687;DHT22;8962;52.538;13.266;2023-06-22T02:54:28;19.50;99.90
17687;DHT22;8962;52.538;13.266;2023-06-22T02:56:55;19.50;99.90
17687;DHT22;8962;52.538;13.266;2023-06-22T02:59:23;19.40;99.90
17687;DHT22;8962;52.538;13.266;2023-06-22T03:01:52;19.50;99.90
17687;DHT22;8962;52.538;13.266;2023-06-22T03:04:25;19.50;99.90
17687;DHT22;8962;52.538;13.266;2023-06-22T03:06:52;19.50;99.90
17687;DHT22;8962;52.538;13.266;2023-06-22T03:09:20;19.50;99.90
17687;DHT22;8962;52.538;13.266;2023-06-22T03:11:47;19.50;99.90
17687;DHT22;8962;52.538;13.266;2023-06-22T03:14:15;19.50;99.90
17687;DHT22;8962;52.538;13.266;2023-06-22T03:16:42;19.50;99.90
17687;DHT22;8962;52.538;13.266;2023-06-22T03:19:11;19.50;99.90
17687;DHT22;8962;52.538;13.266;2023-06-22T03:21:38;19.50;99.90
17687;DHT22;8962;52.538;13.266;2023-06-22T03:24:06;19.50;99.90
17687;DHT22;8962;52.538;13.266;2023-06-22T03:26:35;19.50;99.90
17687;DHT22;8962;52.538;13.266;2023-06-22T03:29:02;19.50;99.90
17687;DHT22;8962;52.538;13.266;2023-06-22T03:31:30;19.40;99.90
17687;DHT22;8962;52.538;13.266;2023-06-22T03:33:58;19.40;99.90
17687;DHT22;8962;52.538;13.266;2023-06-22T03:36:25;19.40;99.90
17687;DHT22;8962;52.538;13.266;2023-06-22T03:38:53;19.40;99.90
17687;DHT22;8962;52.538;13.266;2023-06-22T03:41:20;19.50;99.90
17687;DHT22;8962;52.538;13.266;2023-06-22T03:43:50;19.50;99.90
17687;DHT22;8962;52.538;13.266;2023-06-22T03:46:17;19.50;99.90
17687;DHT22;8962;52.538;13.266;2023-06-22T03:48:45;19.50;99.90
17687;DHT22;8962;52.538;13.266;2023-06-22T03:51:12;19.50;99.90
17687;DHT22;8962;52.538;13.266;2023-06-22T03:53:40;19.50;99.90
17687;DHT22;8962;52.538;13.266;2023-06-22T03:56:07;19.50;99.90
17687;DHT22;8962;52.538;13.266;2023-06-22T03:58:34;19.50;99.90
17687;DHT22;8962;52.538;13.266;2023-06-22T04:01:04;19.50;99.90
17687;DHT22;8962;52.538;13.266;2023-06-22T04:03:32;19.60;99.90
17687;DHT22;8962;52.538;13.266;2023-06-22T04:05:59;19.60;99.90
17687;DHT22;8962;52.538;13.266;2023-06-22T04:08:26;19.70;99.90
17687;DHT22;8962;52.538;13.266;2023-06-22T04:10:53;19.70;99.90
17687;DHT22;8962;52.538;13.266;2023-06-22T04:13:20;19.70;99.90
17687;DHT22;8962;52.538;13.266;2023-06-22T04:15:47;19.80;99.90
17687;DHT22;8962;52.538;13.266;2023-06-22T04:18:16;19.80;99.90
17687;DHT22;8962;52.538;13.266;2023-06-22T04:20:43;19.90;99.90
17687;DHT22;8962;52.538;13.266;2023-06-22T04:23:12;19.90;99.90
17687;DHT22;8962;52.538;13.266;2023-06-22T04:25:39;20.00;99.90
17687;DHT22;8962;52.538;13.266;2023-06-22T04:28:06;20.10;99.90
17687;DHT22;8962;52.538;13.266;2023-06-22T04:30:38;20.10;99.90
17687;DHT22;8962;52.538;13.266;2023-06-22T04:33:13;20.10;99.90
17687;DHT22;8962;52.538;13.266;2023-06-22T04:35:44;20.20;99.90
17687;DHT22;8962;52.538;13.266;2023-06-22T04:38:12;20.30;99.90
17687;DHT22;8962;52.538;13.266;2023-06-22T04:40:40;20.40;99.90
17687;DHT22;8962;52.538;13.266;2023-06-22T04:43:07;20.40;99.90
17687;DHT22;8962;52.538;13.266;2023-06-22T04:45:35;20.50;99.90
17687;DHT22;8962;52.538;13.266;2023-06-22T04:48:04;20.50;99.90
17687;DHT22;8962;52.538;13.266;2023-06-22T04:50:31;20.70;99.90
17687;DHT22;8962;52.538;13.266;2023-06-22T04:53:00;20.80;99.90
17687;DHT22;8962;52.538;13.266;2023-06-22T04:55:31;21.00;99.90
17687;DHT22;8962;52.538;13.266;2023-06-22T04:57:58;21.20;99.90
17687;DHT22;8962;52.538;13.266;2023-06-22T05:00:30;21.50;99.90
17687;DHT22;8962;52.538;13.266;2023-06-22T05:02:57;21.70;99.90
17687;DHT22;8962;52.538;13.266;2023-06-22T05:05:25;21.90;99.90
17687;DHT22;8962;52.538;13.266;2023-06-22T05:07:52;21.90;99.90
17687;DHT22;8962;52.538;13.266;2023-06-22T05:10:22;22.10;99.90
17687;DHT22;8962;52.538;13.266;2023-06-22T05:12:50;22.20;99.90
17687;DHT22;8962;52.538;13.266;2023-06-22T05:15:17;22.40;99.90
17687;DHT22;8962;52.538;13.266;2023-06-22T05:17:45;22.50;99.90
17687;DHT22;8962;52.538;13.266;2023-06-22T05:20:12;22.60;99.90
17687;DHT22;8962;52.538;13.266;2023-06-22T05:22:43;22.60;99.90
17687;DHT22;8962;52.538;13.266;2023-06-22T05:25:11;22.60;99.90
17687;DHT22;8962;52.538;13.266;2023-06-22T05:27:40;22.70;99.90
17687;DHT22;8962;52.538;13.266;2023-06-22T05:30:08;22.70;99.90
17687;DHT22;8962;52.538;13.266;2023-06-22T05:32:36;22.80;99.90
17687;DHT22;8962;52.538;13.266;2023-06-22T05:35:04;22.90;99.90
17687;DHT22;8962;52.538;13.266;2023-06-22T05:37:31;23.00;99.90
17687;DHT22;8962;52.538;13.266;2023-06-22T05:39:58;23.10;99.90
17687;DHT22;8962;52.538;13.266;2023-06-22T05:42:25;23.20;99.90
17687;DHT22;8962;52.538;13.266;2023-06-22T05:44:54;23.20;99.90
17687;DHT22;8962;52.538;13.266;2023-06-22T05:47:21;23.30;99.90
17687;DHT22;8962;52.538;13.266;2023-06-22T05:49:48;23.30;99.90
17687;DHT22;8962;52.538;13.266;2023-06-22T05:52:15;23.30;99.90
17687;DHT22;8962;52.538;13.266;2023-06-22T05:54:42;23.40;99.90
17687;DHT22;8962;52.538;13.266;2023-06-22T05:57:09;23.30;99.90
17687;DHT22;8962;52.538;13.266;2023-06-22T05:59:36;23.30;99.90
17687;DHT22;8962;52.538;13.266;2023-06-22T06:02:06;23.40;99.90
17687;DHT22;8962;52.538;13.266;2023-06-22T06:04:33;23.40;99.90
17687;DHT22;8962;52.538;13.266;2023-06-22T06:07:01;23.40;99.90
17687;DHT22;8962;52.538;13.266;2023-06-22T06:09:28;23.50;99.90
17687;DHT22;8962;52.538;13.266;2023-06-22T06:11:56;23.60;99.90
17687;DHT22;8962;52.538;13.266;2023-06-22T06:14:23;23.50;99.90
17687;DHT22;8962;52.538;13.266;2023-06-22T06:16:50;23.60;99.90
17687;DHT22;8962;52.538;13.266;2023-06-22T06:19:19;23.60;99.90
17687;DHT22;8962;52.538;13.266;2023-06-22T06:21:46;23.60;99.90
17687;DHT22;8962;52.538;13.266;2023-06-22T06:24:13;23.80;99.90
17687;DHT22;8962;52.538;13.266;2023-06-22T06:26:40;23.90;99.90
17687;DHT22;8962;52.538;13.266;2023-06-22T06:29:07;23.90;99.90
17687;DHT22;8962;52.538;13.266;2023-06-22T06:31:34;24.10;99.90
17687;DHT22;8962;52.538;13.266;2023-06-22T06:34:02;24.20;99.90
17687;DHT22;8962;52.538;13.266;2023-06-22T06:36:30;24.30;99.90
17687;DHT22;8962;52.538;13.266;2023-06-22T06:38:57;24.30;99.90
17687;DHT22;8962;52.538;13.266;2023-06-22T06:41:24;24.50;99.90
17687;DHT22;8962;52.538;13.266;2023-06-22T06:43:51;24.60;99.90
17687;DHT22;8962;52.538;13.266;2023-06-22T06:46:19;24.40;99.90
17687;DHT22;8962;52.538;13.266;2023-06-22T06:48:47;24.50;99.90
17687;DHT22;8962;52.538;13.266;2023-06-22T06:51:14;24.50;99.90
17687;DHT22;8962;52.538;13.266;2023-06-22T06:53:42;24.50;99.90
17687;DHT22;8962;52.538;13.266;2023-06-22T06:56:09;24.50;99.90
17687;DHT22;8962;52.538;13.266;2023-06-22T06:58:40;24.70;99.90
17687;DHT22;8962;52.538;13.266;2023-06-22T07:01:07;24.90;99.90
17687;DHT22;8962;52.538;13.266;2023-06-22T07:03:34;25.00;99.90
17687;DHT22;8962;52.538;13.266;2023-06-22T07:06:02;25.20;99.90
17687;DHT22;8962;52.538;13.266;2023-06-22T07:08:29;25.40;99.90
17687;DHT22;8962;52.538;13.266;2023-06-22T07:10:58;25.70;99.90
17687;DHT22;8962;52.538;13.266;2023-06-22T07:13:26;25.90;99.90
17687;DHT22;8962;52.538;13.266;2023-06-22T07:15:53;25.90;99.90
17687;DHT22;8962;52.538;13.266;2023-06-22T07:18:20;26.00;99.90
17687;DHT22;8962;52.538;13.266;2023-06-22T07:20:47;26.00;99.90
17687;DHT22;8962;52.538;13.266;2023-06-22T07:23:16;26.20;99.90
17687;DHT22;8962;52.538;13.266;2023-06-22T07:25:44;26.10;99.90
17687;DHT22;8962;52.538;13.266;2023-06-22T07:28:14;26.30;99.90
17687;DHT22;8962;52.538;13.266;2023-06-22T07:30:44;26.30;99.90
17687;DHT22;8962;52.538;13.266;2023-06-22T07:33:12;26.10;99.90
17687;DHT22;8962;52.538;13.266;2023-06-22T07:35:40;26.00;99.90
17687;DHT22;8962;52.538;13.266;2023-06-22T07:38:07;26.10;99.90
17687;DHT22;8962;52.538;13.266;2023-06-22T07:40:35;26.30;99.90
17687;DHT22;8962;52.538;13.266;2023-06-22T07:43:02;26.40;99.90
17687;DHT22;8962;52.538;13.266;2023-06-22T07:45:32;26.50;99.90
17687;DHT22;8962;52.538;13.266;2023-06-22T07:48:01;26.60;99.90
17687;DHT22;8962;52.538;13.266;2023-06-22T07:50:30;26.60;99.90
17687;DHT22;8962;52.538;13.266;2023-06-22T07:52:59;26.60;99.90
17687;DHT22;8962;52.538;13.266;2023-06-22T07:55:27;26.70;99.90
17687;DHT22;8962;52.538;13.266;2023-06-22T07:57:57;26.70;99.90
17687;DHT22;8962;52.538;13.266;2023-06-22T08:00:26;26.90;99.90
17687;DHT22;8962;52.538;13.266;2023-06-22T08:02:57;27.10;99.90
17687;DHT22;8962;52.538;13.266;2023-06-22T08:05:24;27.10;99.90
17687;DHT22;8962;52.538;13.266;2023-06-22T08:07:51;27.30;99.90
17687;DHT22;8962;52.538;13.266;2023-06-22T08:10:19;27.50;99.90
17687;DHT22;8962;52.538;13.266;2023-06-22T08:12:50;27.60;99.90
17687;DHT22;8962;52.538;13.266;2023-06-22T08:15:18;27.80;99.90
17687;DHT22;8962;52.538;13.266;2023-06-22T08:17:46;28.00;99.90
17687;DHT22;8962;52.538;13.266;2023-06-22T08:20:17;27.70;99.90
17687;DHT22;8962;52.538;13.266;2023-06-22T08:22:44;27.50;99.90
17687;DHT22;8962;52.538;13.266;2023-06-22T08:25:11;27.50;99.90
17687;DHT22;8962;52.538;13.266;2023-06-22T08:27:40;27.50;99.60
17687;DHT22;8962;52.538;13.266;2023-06-22T08:30:09;27.60;98.90
17687;DHT22;8962;52.538;13.266;2023-06-22T08:32:38;27.70;99.00
17687;DHT22;8962;52.538;13.266;2023-06-22T08:35:07;27.90;98.60
17687;DHT22;8962;52.538;13.266;2023-06-22T08:37:36;27.90;97.70
17687;DHT22;8962;52.538;13.266;2023-06-22T08:40:08;27.70;97.90
17687;DHT22;8962;52.538;13.266;2023-06-22T08:42:37;27.90;97.10
17687;DHT22;8962;52.538;13.266;2023-06-22T08:45:06;27.80;96.90
17687;DHT22;8962;52.538;13.266;2023-06-22T08:47:38;27.90;96.70
17687;DHT22;8962;52.538;13.266;2023-06-22T08:50:10;27.90;96.80
17687;DHT22;8962;52.538;13.266;2023-06-22T08:52:39;27.80;96.50
17687;DHT22;8962;52.538;13.266;2023-06-22T08:55:09;27.80;96.20
17687;DHT22;8962;52.538;13.266;2023-06-22T08:57:36;27.80;96.30
17687;DHT22;8962;52.538;13.266;2023-06-22T09:00:07;28.00;95.40
17687;DHT22;8962;52.538;13.266;2023-06-22T09:02:48;28.10;95.00
17687;DHT22;8962;52.538;13.266;2023-06-22T09:05:17;28.10;94.60
17687;DHT22;8962;52.538;13.266;2023-06-22T09:07:46;28.40;94.70
17687;DHT22;8962;52.538;13.266;2023-06-22T09:10:13;28.50;93.40
17687;DHT22;8962;52.538;13.266;2023-06-22T09:12:43;28.40;94.20
17687;DHT22;8962;52.538;13.266;2023-06-22T09:15:10;28.40;93.50
17687;DHT22;8962;52.538;13.266;2023-06-22T09:17:40;28.50;93.70
17687;DHT22;8962;52.538;13.266;2023-06-22T09:20:08;28.60;93.40
17687;DHT22;8962;52.538;13.266;2023-06-22T09:22:37;28.60;92.80
17687;DHT22;8962;52.538;13.266;2023-06-22T09:25:07;28.80;92.40
17687;DHT22;8962;52.538;13.266;2023-06-22T09:27:36;28.70;92.30
17687;DHT22;8962;52.538;13.266;2023-06-22T09:30:06;28.60;93.40
17687;DHT22;8962;52.538;13.266;2023-06-22T09:32:33;28.50;94.00
17687;DHT22;8962;52.538;13.266;2023-06-22T09:35:03;28.30;94.20
17687;DHT22;8962;52.538;13.266;2023-06-22T09:37:34;28.30;93.90
17687;DHT22;8962;52.538;13.266;2023-06-22T09:40:03;28.50;93.50
17687;DHT22;8962;52.538;13.266;2023-06-22T09:42:37;28.90;93.00
17687;DHT22;8962;52.538;13.266;2023-06-22T09:45:06;29.10;92.40
17687;DHT22;8962;52.538;13.266;2023-06-22T09:47:34;29.30;91.90
17687;DHT22;8962;52.538;13.266;2023-06-22T09:50:01;29.10;91.90
17687;DHT22;8962;52.538;13.266;2023-06-22T09:52:29;28.70;93.20
17687;DHT22;8962;52.538;13.266;2023-06-22T09:54:57;28.70;92.60
17687;DHT22;8962;52.538;13.266;2023-06-22T09:57:27;28.90;92.30
17687;DHT22;8962;52.538;13.266;2023-06-22T10:00:00;28.90;92.20
17687;DHT22;8962;52.538;13.266;2023-06-22T10:02:27;29.00;91.40
17687;DHT22;8962;52.538;13.266;2023-06-22T10:04:54;29.20;90.50
17687;DHT22;8962;52.538;13.266;2023-06-22T10:07:22;29.50;88.80
17687;DHT22;8962;52.538;13.266;2023-06-22T10:09:49;29.70;86.90
17687;DHT22;8962;52.538;13.266;2023-06-22T10:12:16;29.80;86.60
17687;DHT22;8962;52.538;13.266;2023-06-22T10:14:44;30.00;83.70
17687;DHT22;8962;52.538;13.266;2023-06-22T10:17:12;30.00;85.00
17687;DHT22;8962;52.538;13.266;2023-06-22T10:19:39;30.00;84.30
17687;DHT22;8962;52.538;13.266;2023-06-22T10:22:08;30.10;84.10
17687;DHT22;8962;52.538;13.266;2023-06-22T10:24:36;30.30;83.40
17687;DHT22;8962;52.538;13.266;2023-06-22T10:27:04;30.50;82.60
17687;DHT22;8962;52.538;13.266;2023-06-22T10:29:32;30.60;82.20
17687;DHT22;8962;52.538;13.266;2023-06-22T10:31:59;30.40;82.30
17687;DHT22;8962;52.538;13.266;2023-06-22T10:34:28;30.00;83.20
17687;DHT22;8962;52.538;13.266;2023-06-22T10:36:55;30.00;82.80
17687;DHT22;8962;52.538;13.266;2023-06-22T10:39:22;29.70;83.40
17687;DHT22;8962;52.538;13.266;2023-06-22T10:41:50;29.80;83.40
17687;DHT22;8962;52.538;13.266;2023-06-22T10:44:18;29.60;85.40
17687;DHT22;8962;52.538;13.266;2023-06-22T10:46:48;29.80;86.70
17687;DHT22;8962;52.538;13.266;2023-06-22T10:49:15;30.00;86.30
17687;DHT22;8962;52.538;13.266;2023-06-22T10:51:43;29.90;85.40
17687;DHT22;8962;52.538;13.266;2023-06-22T10:54:13;29.70;85.90
17687;DHT22;8962;52.538;13.266;2023-06-22T10:56:42;29.40;87.80
17687;DHT22;8962;52.538;13.266;2023-06-22T10:59:10;29.30;90.10
17687;DHT22;8962;52.538;13.266;2023-06-22T11:01:37;29.40;89.60
17687;DHT22;8962;52.538;13.266;2023-06-22T11:04:04;29.70;90.10
17687;DHT22;8962;52.538;13.266;2023-06-22T11:06:31;29.50;87.50
17687;DHT22;8962;52.538;13.266;2023-06-22T11:09:01;29.70;86.50
17687;DHT22;8962;52.538;13.266;2023-06-22T11:11:30;29.80;86.60
17687;DHT22;8962;52.538;13.266;2023-06-22T11:13:58;30.20;83.90
17687;DHT22;8962;52.538;13.266;2023-06-22T11:16:25;30.20;82.40
17687;DHT22;8962;52.538;13.266;2023-06-22T11:18:52;30.10;81.90
17687;DHT22;8962;52.538;13.266;2023-06-22T11:21:21;30.10;83.60
17687;DHT22;8962;52.538;13.266;2023-06-22T11:23:49;30.40;82.90
17687;DHT22;8962;52.538;13.266;2023-06-22T11:26:19;30.30;83.90
17687;DHT22;8962;52.538;13.266;2023-06-22T11:28:48;30.60;79.50
17687;DHT22;8962;52.538;13.266;2023-06-22T11:31:20;30.40;80.00
17687;DHT22;8962;52.538;13.266;2023-06-22T11:33:48;30.30;80.20
17687;DHT22;8962;52.538;13.266;2023-06-22T11:36:15;30.40;80.60
17687;DHT22;8962;52.538;13.266;2023-06-22T11:38:42;30.40;79.00
17687;DHT22;8962;52.538;13.266;2023-06-22T11:41:11;30.40;78.40
17687;DHT22;8962;52.538;13.266;2023-06-22T11:43:42;30.10;80.00
17687;DHT22;8962;52.538;13.266;2023-06-22T11:46:15;29.80;82.50
17687;DHT22;8962;52.538;13.266;2023-06-22T11:48:42;30.20;83.30
17687;DHT22;8962;52.538;13.266;2023-06-22T11:51:10;31.30;79.10
17687;DHT22;8962;52.538;13.266;2023-06-22T11:53:38;32.20;72.70
17687;DHT22;8962;52.538;13.266;2023-06-22T11:56:05;32.70;70.30
17687;DHT22;8962;52.538;13.266;2023-06-22T11:58:32;32.10;70.30
17687;DHT22;8962;52.538;13.266;2023-06-22T12:01:07;31.40;71.90
17687;DHT22;8962;52.538;13.266;2023-06-22T12:03:34;31.30;71.50
17687;DHT22;8962;52.538;13.266;2023-06-22T12:06:03;31.50;71.10
17687;DHT22;8962;52.538;13.266;2023-06-22T12:08:40;32.40;70.20
17687;DHT22;8962;52.538;13.266;2023-06-22T12:11:07;32.80;65.50
17687;DHT22;8962;52.538;13.266;2023-06-22T12:13:35;32.80;64.60
17687;DHT22;8962;52.538;13.266;2023-06-22T12:16:03;32.50;65.10
17687;DHT22;8962;52.538;13.266;2023-06-22T12:18:32;33.00;63.70
17687;DHT22;8962;52.538;13.266;2023-06-22T12:21:01;33.90;60.70
17687;DHT22;8962;52.538;13.266;2023-06-22T12:23:28;34.10;58.10
17687;DHT22;8962;52.538;13.266;2023-06-22T12:25:56;34.40;56.30
17687;DHT22;8962;52.538;13.266;2023-06-22T12:28:24;34.90;54.50
17687;DHT22;8962;52.538;13.266;2023-06-22T12:30:51;35.50;52.60
17687;DHT22;8962;52.538;13.266;2023-06-22T12:33:18;35.80;50.00
17687;DHT22;8962;52.538;13.266;2023-06-22T12:35:47;35.40;49.60
17687;DHT22;8962;52.538;13.266;2023-06-22T12:38:15;35.60;48.60
17687;DHT22;8962;52.538;13.266;2023-06-22T12:40:46;35.10;49.20
17687;DHT22;8962;52.538;13.266;2023-06-22T12:43:17;34.40;48.50
17687;DHT22;8962;52.538;13.266;2023-06-22T12:45:47;34.50;49.20
17687;DHT22;8962;52.538;13.266;2023-06-22T12:48:16;33.90;50.70
17687;DHT22;8962;52.538;13.266;2023-06-22T12:50:48;33.70;52.00
17687;DHT22;8962;52.538;13.266;2023-06-22T12:53:17;33.60;52.10
17687;DHT22;8962;52.538;13.266;2023-06-22T12:55:44;33.10;52.00
17687;DHT22;8962;52.538;13.266;2023-06-22T12:58:13;33.00;54.20
17687;DHT22;8962;52.538;13.266;2023-06-22T13:00:40;32.90;54.20
17687;DHT22;8962;52.538;13.266;2023-06-22T13:03:08;34.20;50.40
17687;DHT22;8962;52.538;13.266;2023-06-22T13:05:36;34.40;49.60
17687;DHT22;8962;52.538;13.266;2023-06-22T13:08:05;34.70;49.50
17687;DHT22;8962;52.538;13.266;2023-06-22T13:10:33;35.00;47.70
17687;DHT22;8962;52.538;13.266;2023-06-22T13:13:02;35.50;46.60
17687;DHT22;8962;52.538;13.266;2023-06-22T13:15:30;36.60;43.20
17687;DHT22;8962;52.538;13.266;2023-06-22T13:17:58;36.70;41.90
17687;DHT22;8962;52.538;13.266;2023-06-22T13:20:26;36.70;42.20
17687;DHT22;8962;52.538;13.266;2023-06-22T13:22:53;36.80;41.50
17687;DHT22;8962;52.538;13.266;2023-06-22T13:25:23;36.70;40.50
17687;DHT22;8962;52.538;13.266;2023-06-22T13:27:55;36.20;40.80
17687;DHT22;8962;52.538;13.266;2023-06-22T13:30:25;36.50;41.30
17687;DHT22;8962;52.538;13.266;2023-06-22T13:32:52;36.60;39.90
17687;DHT22;8962;52.538;13.266;2023-06-22T13:35:20;36.80;39.20
17687;DHT22;8962;52.538;13.266;2023-06-22T13:37:49;36.90;38.80
17687;DHT22;8962;52.538;13.266;2023-06-22T13:40:18;37.00;37.40
17687;DHT22;8962;52.538;13.266;2023-06-22T13:42:46;36.20;38.10
17687;DHT22;8962;52.538;13.266;2023-06-22T13:45:14;36.10;39.10
17687;DHT22;8962;52.538;13.266;2023-06-22T13:47:42;36.70;38.90
17687;DHT22;8962;52.538;13.266;2023-06-22T13:50:14;37.30;37.70
17687;DHT22;8962;52.538;13.266;2023-06-22T13:52:41;37.30;37.70
17687;DHT22;8962;52.538;13.266;2023-06-22T13:55:09;37.40;37.00
17687;DHT22;8962;52.538;13.266;2023-06-22T13:57:37;37.40;36.90
17687;DHT22;8962;52.538;13.266;2023-06-22T14:00:07;37.40;36.50
17687;DHT22;8962;52.538;13.266;2023-06-22T14:02:40;37.20;36.00
17687;DHT22;8962;52.538;13.266;2023-06-22T14:05:10;37.30;36.30
17687;DHT22;8962;52.538;13.266;2023-06-22T14:07:37;37.40;36.60
17687;DHT22;8962;52.538;13.266;2023-06-22T14:10:05;37.60;36.50
17687;DHT22;8962;52.538;13.266;2023-06-22T14:12:34;36.80;36.40
17687;DHT22;8962;52.538;13.266;2023-06-22T14:15:02;36.60;36.90
17687;DHT22;8962;52.538;13.266;2023-06-22T14:17:32;37.00;36.10
17687;DHT22;8962;52.538;13.266;2023-06-22T14:20:00;36.90;36.10
17687;DHT22;8962;52.538;13.266;2023-06-22T14:22:29;36.80;35.80
17687;DHT22;8962;52.538;13.266;2023-06-22T14:24:56;36.80;36.40
17687;DHT22;8962;52.538;13.266;2023-06-22T14:27:24;36.80;36.20
17687;DHT22;8962;52.538;13.266;2023-06-22T14:29:51;36.60;36.60
17687;DHT22;8962;52.538;13.266;2023-06-22T14:32:19;37.00;36.00
17687;DHT22;8962;52.538;13.266;2023-06-22T14:34:50;37.10;36.00
17687;DHT22;8962;52.538;13.266;2023-06-22T14:37:20;37.30;35.30
17687;DHT22;8962;52.538;13.266;2023-06-22T14:39:47;37.00;35.70
17687;DHT22;8962;52.538;13.266;2023-06-22T14:42:17;37.70;34.60
17687;DHT22;8962;52.538;13.266;2023-06-22T14:44:46;37.50;34.30
17687;DHT22;8962;52.538;13.266;2023-06-22T14:47:14;37.50;34.90
17687;DHT22;8962;52.538;13.266;2023-06-22T14:49:45;37.50;34.70
17687;DHT22;8962;52.538;13.266;2023-06-22T14:52:14;37.40;34.10
17687;DHT22;8962;52.538;13.266;2023-06-22T14:54:43;37.10;34.50
17687;DHT22;8962;52.538;13.266;2023-06-22T14:57:10;36.90;35.10
17687;DHT22;8962;52.538;13.266;2023-06-22T14:59:38;36.90;35.30
17687;DHT22;8962;52.538;13.266;2023-06-22T15:02:06;37.10;34.70
17687;DHT22;8962;52.538;13.266;2023-06-22T15:04:33;37.30;34.30
17687;DHT22;8962;52.538;13.266;2023-06-22T15:07:01;37.10;34.20
17687;DHT22;8962;52.538;13.266;2023-06-22T15:09:32;37.30;33.50
17687;DHT22;8962;52.538;13.266;2023-06-22T15:12:00;37.30;33.70
17687;DHT22;8962;52.538;13.266;2023-06-22T15:14:32;37.60;33.50
17687;DHT22;8962;52.538;13.266;2023-06-22T15:16:59;38.10;33.20
17687;DHT22;8962;52.538;13.266;2023-06-22T15:19:26;38.40;32.50
17687;DHT22;8962;52.538;13.266;2023-06-22T15:21:54;37.50;33.20
17687;DHT22;8962;52.538;13.266;2023-06-22T15:24:22;38.00;32.60
17687;DHT22;8962;52.538;13.266;2023-06-22T15:26:52;37.40;33.40
17687;DHT22;8962;52.538;13.266;2023-06-22T15:29:20;37.80;32.90
17687;DHT22;8962;52.538;13.266;2023-06-22T15:31:48;37.60;32.80
17687;DHT22;8962;52.538;13.266;2023-06-22T15:34:17;37.60;32.80
17687;DHT22;8962;52.538;13.266;2023-06-22T15:36:44;36.70;34.20
17687;DHT22;8962;52.538;13.266;2023-06-22T15:39:11;35.20;37.40